This is the latest recevied weather packets stored in our database for station/object NO3B-10. If no packets are shown the sender has not sent any weather packets the latest 10 day(s).
| Time | Temp. | Humidity | Pressure | Rain* | Wind** | Luminosity | Snow |
|---|---|---|---|---|---|---|---|
| 1777870288 | 10° C | 60% | 1013.3 hPa | 0 mm | - | - | - |
| 1777869386 | 10° C | 61% | 1013.2 hPa | 0 mm | - | - | - |
| 1777868486 | 10° C | 60% | 1013.2 hPa | 0 mm | - | - | - |
| 1777867586 | 10° C | 60% | 1013.3 hPa | 0 mm | - | - | - |
| 1777866686 | 9.44° C | 61% | 1013.2 hPa | 0 mm | - | - | - |
| 1777864995 | 9.44° C | 61% | 1013.3 hPa | 0 mm | - | - | - |
| 1777864888 | 9.44° C | 61% | 1013.3 hPa | 0 mm | - | - | - |
| 1777807342 | 6.67° C | 69% | 1014.4 hPa | 0 mm | - | - | - |
| 1777807290 | 6.67° C | 69% | 1014.4 hPa | 0 mm | - | - | - |
| 1777805492 | 6.11° C | 70% | 1013.7 hPa | 0 mm | - | - | - |
| 1777802049 | 6.11° C | 70% | 1012.9 hPa | 0 mm | - | - | - |
| 1777801893 | 6.11° C | 70% | 1012.9 hPa | 0 mm | - | - | - |
| 1777800092 | 6.67° C | 69% | 1012.5 hPa | 0 mm | - | - | - |
| 1777784828 | 10.56° C | 54% | 1011.3 hPa | 0 mm | - | - | - |
| 1777784793 | 10.56° C | 54% | 1011.3 hPa | 0 mm | - | - | - |
| 1777711897 | 10.56° C | 77% | 1010 hPa | 0 mm | - | - | - |
| 1777665098 | 19.44° C | 38% | 1009 hPa | 0 mm | - | - | - |
| 1777632701 | 5° C | 90% | 1013 hPa | 0 mm | - | - | - |
| 1777626402 | 7.22° C | 81% | 1012.5 hPa | 0 mm | - | - | - |
| 1777557105 | 15° C | 81% | 1006.8 hPa | 0 mm | - | - | - |
| 1777554406 | 14.44° C | 84% | 1006.3 hPa | 0 mm | - | - | - |
| 1777551709 | 13.33° C | 96% | 1006.1 hPa | 0 mm | - | - | - |
| 1777550809 | 12.78° C | 98% | 1006.2 hPa | 0 mm | - | - | - |
| 1777548104 | 11.67° C | 98% | 1005.8 hPa | 0 mm | - | - | - |
| 1777546304 | 11.67° C | 99% | 1005.4 hPa | 0 mm | - | - | - |
* Rain latest hour (hover to see other rain measurements)
** Current wind speed in m/s (hover to see current wind gust speed)